Flight Track Log - Related Links

Times and Time Zones

All times are in EDT time to prevent confusion due to time zone crossing. See the EZS1192 flight status page for this flight to view local times or setup timezone preferences in your user account.

Time Position Orientation Groundspeed Altitude Reporting Facility
EDT Latitude Longitude Course Direction KTS MPH feet Rate Location/Type
Thu 05:35:00 AM 32.6404 34.1218 315° West  Level Estimated
Thu 05:36:00 AM 32.7103 34.0373 314° West  Level Estimated
Thu 05:37:00 AM 32.7800 33.9526 314° West  Level Estimated
Thu 05:38:00 AM 32.8498 33.8678 314° West  Level Estimated
Thu 05:39:00 AM 32.9194 33.7828 314° West  Level Estimated
Thu 05:40:00 AM 32.9890 33.6978 314° West  Level Estimated
Thu 05:41:00 AM 33.0586 33.6125 314° West  Level Estimated
Thu 05:42:00 AM 33.1280 33.5272 314° West  Level Estimated
Thu 05:43:00 AM 33.1974 33.4417 314° West  Level Estimated
Thu 05:44:00 AM 33.2668 33.3561 314° West  Level Estimated
Thu 05:45:00 AM 33.3361 33.2703 314° West  Level Estimated
Thu 05:46:00 AM 33.4054 33.1844 314° West  Level Estimated
Thu 05:46:21 AM 32.0090 34.8420 314° West 160 184 1,600  Level FlightAware ADS-B
Thu 05:46:46 AM 32.0060 34.8240 259° West 160 184 1,600 1,500 Level FlightAware ADS-B
Thu 05:47:45 AM 31.9920 34.7650 254° West 188 216 3,700 1,600 Climbing FlightAware ADS-B
Thu 05:48:16 AM 31.9960 34.7370 280° West 208 239 4,000 588 Climbing FlightAware ADS-B
Thu 05:48:36 AM 32.0060 34.7100 294° West 245 282 4,200 1,067 Climbing FlightAware ADS-B
Thu 05:49:01 AM 32.0170 34.6770 291° West 270 311 4,800 1,765 Climbing FlightAware ADS-B
Thu 05:49:10 AM 32.0210 34.6630 289° West 273 314 5,200 2,647 Climbing FlightAware ADS-B
Thu 05:49:35 AM 32.0280 34.6250 282° West 279 321 6,300 2,400 Climbing FlightAware ADS-B
Thu 05:49:55 AM 32.0300 34.5930 274° West 286 329 7,000 2,250 Climbing FlightAware ADS-B
Thu 05:50:15 AM 32.0310 34.5640 272° West 289 333 7,800 2,550 Climbing FlightAware ADS-B
Thu 05:50:35 AM 32.0340 34.5350 277° West 285 328 8,700 3,000 Climbing FlightAware ADS-B
Thu 05:50:41 AM 32.0380 34.5250 295° West 282 325 9,100 3,143 Climbing FlightAware ADS-B
Thu 05:50:56 AM 32.0460 34.5060 296° West 280 322 9,800 1,636 Climbing FlightAware ADS-B
Thu 05:51:36 AM 32.0690 34.4500 296° West 312 359 10,600 1,029 Climbing FlightAware ADS-B
Thu 05:52:06 AM 32.0910 34.3990 297° West 341 392 11,000 1,478 Climbing FlightAware ADS-B
Thu 05:52:45 AM 32.1200 34.3300 296° West 354 407 12,300 2,000 Climbing FlightAware ADS-B
Thu 05:53:21 AM 32.1440 34.2720 296° West 357 411 13,500 2,031 Climbing FlightAware ADS-B
Thu 05:53:50 AM 32.1660 34.2170 295° West 365 420 14,500 1,846 Climbing FlightAware ADS-B
Thu 05:54:26 AM 32.1930 34.1520 296° West 370 426 15,500 1,690 Climbing FlightAware ADS-B
Thu 05:55:01 AM 32.2170 34.0930 296° West 374 430 16,500 1,680 Climbing FlightAware ADS-B
Thu 05:55:41 AM 32.2490 34.0160 296° West 384 442 17,600 1,629 Climbing FlightAware ADS-B
Thu 05:56:11 AM 32.2720 33.9600 296° West 386 444 18,400 1,569 Climbing FlightAware ADS-B
Thu 05:56:46 AM 32.2990 33.8950 296° West 392 451 19,300 1,565 Climbing FlightAware ADS-B
Thu 05:57:20 AM 32.3280 33.8240 296° West 395 455 20,200 1,371 Climbing FlightAware ADS-B
Thu 05:57:56 AM 32.3560 33.7560 296° West 404 465 20,900 1,342 Climbing FlightAware ADS-B
Thu 05:58:36 AM 32.3890 33.6750 296° West 406 467 21,900 1,541 Climbing FlightAware ADS-B
Thu 05:59:10 AM 32.4190 33.6020 296° West 406 467 22,800 1,433 Climbing FlightAware ADS-B
Thu 05:59:43 AM 32.4460 33.5360 296° West 406 467 23,500 1,217 Climbing FlightAware ADS-B
Thu 06:00:19 AM 32.4750 33.4630 295° West 407 468 24,200 1,068 Climbing FlightAware ADS-B
Thu 06:00:56 AM 32.5050 33.3890 296° West 410 472 24,800 904 Climbing FlightAware ADS-B
Thu 06:01:32 AM 32.5340 33.3170 296° West 416 479 25,300 971 Climbing FlightAware ADS-B
Thu 06:02:04 AM 32.5610 33.2500 296° West 415 478 25,900 882 Climbing FlightAware ADS-B
Thu 06:02:40 AM 32.5910 33.1770 296° West 419 482 26,300 667 Climbing FlightAware ADS-B
Thu 06:03:16 AM 32.6200 33.1050 296° West 423 487 26,700 649 Climbing FlightAware ADS-B
Thu 06:03:54 AM 32.6510 33.0250 295° West 424 488 27,100 658 Climbing FlightAware ADS-B
Thu 06:04:29 AM 32.6800 32.9530 296° West 428 493 27,500 462 Climbing FlightAware ADS-B
Thu 06:05:25 AM 32.7240 32.8410 295° West 431 496 27,800 695 Climbing FlightAware ADS-B
Thu 06:06:04 AM 32.7650 32.7400 296° West 439 505 28,600 975 Climbing FlightAware ADS-B
Thu 06:06:45 AM 32.7990 32.6550 295° West 436 502 29,100 640 Climbing FlightAware ADS-B
Thu 06:07:19 AM 32.8280 32.5810 295° West 439 505 29,400 450 Climbing FlightAware ADS-B
Thu 06:08:05 AM 32.8720 32.4910 300° West 445 512 29,700 621 Climbing FlightAware ADS-B
Thu 06:08:46 AM 32.9310 32.4060 310° West 447 514 30,300 761 Climbing FlightAware ADS-B
Thu 06:09:16 AM 32.9700 32.3590 315° West 447 514 30,600 750 Climbing FlightAware ADS-B
Thu 06:09:50 AM 33.0250 32.2920 314° West 448 516 31,100 943 Climbing FlightAware ADS-B
Thu 06:10:26 AM 33.0790 32.2270 315° West 442 509 31,700 833 Climbing FlightAware ADS-B
Thu 06:11:02 AM 33.1290 32.1660 314° West 441 507 32,100 740 Climbing FlightAware ADS-B
Thu 06:11:39 AM 33.1780 32.1060 314° West 440 506 32,600 892 Climbing FlightAware ADS-B
Thu 06:12:16 AM 33.2320 32.0390 314° West 442 509 33,200 833 Climbing FlightAware ADS-B
Thu 06:12:51 AM 33.2860 31.9730 314° West 441 507 33,600 646 Climbing FlightAware ADS-B
Thu 06:13:21 AM 33.3290 31.9200 314° West 440 506 33,900 364 Climbing FlightAware ADS-B
Thu 06:13:57 AM 33.3810 31.8570 315° West 441 507 34,000 92 Climbing FlightAware ADS-B
Thu 06:14:26 AM 33.4230 31.8060 315° West 439 505 34,000  Level FlightAware ADS-B
Thu 06:15:03 AM 33.4730 31.7440 314° West 437 503 34,000  Level FlightAware ADS-B
Thu 06:15:42 AM 33.5290 31.6750 314° West 439 505 34,000  Level FlightAware ADS-B
Thu 06:16:17 AM 33.5800 31.6120 314° West 439 505 34,000  Level FlightAware ADS-B
Thu 06:16:52 AM 33.6290 31.5510 314° West 440 506 34,000  Level FlightAware ADS-B
Thu 06:17:24 AM 33.6720 31.4980 314° West 441 507 34,000  Level FlightAware ADS-B
Thu 06:18:03 AM 33.7280 31.4270 313° West 440 506 34,000  Level FlightAware ADS-B
Thu 06:18:39 AM 33.7780 31.3650 314° West 441 507 34,000  Level FlightAware ADS-B
Thu 06:19:13 AM 33.8280 31.3040 315° West 439 505 34,000  Level FlightAware ADS-B
Thu 06:19:49 AM 33.8750 31.2450 314° West 438 504 34,000  Level FlightAware ADS-B
Thu 06:20:25 AM 33.9260 31.1810 314° West 431 496 34,000  Level FlightAware ADS-B
Thu 06:20:59 AM 33.9740 31.1210 314° West 430 495 34,000  Level FlightAware ADS-B
Thu 06:21:30 AM 34.0180 31.0650 313° West 429 494 34,000  Level FlightAware ADS-B
Thu 06:22:09 AM 34.0690 31.0010 314° West 429 494 34,000  Level FlightAware ADS-B
Thu 06:22:46 AM 34.1250 30.9300 314° West 429 494 34,000  Level FlightAware ADS-B
Thu 06:23:17 AM 34.1680 30.8760 314° West 428 493 34,000  Level FlightAware ADS-B
Thu 06:23:52 AM 34.2180 30.8150 315° West 434 499 34,000  Level FlightAware ADS-B
Thu 06:24:27 AM 34.2660 30.7550 314° West 434 499 34,000  Level FlightAware ADS-B
Thu 06:25:01 AM 34.3140 30.6960 315° West 434 499 34,000  Level FlightAware ADS-B
Thu 06:25:37 AM 34.3640 30.6340 314° West 427 491 34,000  Level FlightAware ADS-B
Thu 06:26:12 AM 34.4140 30.5720 314° West 425 489 34,000  Level FlightAware ADS-B
Thu 06:26:52 AM 34.4680 30.5040 314° West 424 488 34,000  Level FlightAware ADS-B
Thu 06:27:22 AM 34.5100 30.4520 314° West 424 488 34,000  Level FlightAware ADS-B
Thu 06:27:57 AM 34.5590 30.3910 314° West 424 488 34,000  Level FlightAware ADS-B
Thu 06:28:33 AM 34.6080 30.3300 314° West 425 489 34,000  Level FlightAware ADS-B
Thu 06:29:12 AM 34.6530 30.2720 313° West 425 489 34,000  Level FlightAware ADS-B
Thu 06:29:44 AM 34.7020 30.2110 314° West 424 488 34,000  Level FlightAware ADS-B
Thu 06:30:29 AM 34.7640 30.1340 314° West 424 488 34,000  Level FlightAware ADS-B
Thu 06:30:59 AM 34.8080 30.0780 314° West 423 487 34,000  Level FlightAware ADS-B
Thu 06:31:36 AM 34.8580 30.0150 314° West 423 487 34,000  Level FlightAware ADS-B
Thu 06:32:11 AM 34.9060 29.9540 314° West 423 487 34,000  Level FlightAware ADS-B
Thu 06:32:41 AM 34.9480 29.9020 315° West 423 487 34,000  Level FlightAware ADS-B
Thu 06:33:21 AM 35.0060 29.8280 314° West 421 484 34,000  Level FlightAware ADS-B
Thu 06:33:56 AM 35.0510 29.7710 314° West 422 486 34,000  Level FlightAware ADS-B
Thu 06:34:40 AM 35.1110 29.6940 314° West 422 486 34,000  Level FlightAware ADS-B
Thu 06:35:06 AM 35.1480 29.6470 314° West 422 486 34,000  Level FlightAware ADS-B
Thu 06:35:46 AM 35.2000 29.5790 313° West 427 491 34,000  Level FlightAware ADS-B
Thu 06:36:35 AM 35.2570 29.5060 314° West 427 491 34,000  Level FlightAware ADS-B
Thu 06:37:12 AM 35.2990 29.4500 313° West 427 491 34,000  Level FlightAware ADS-B
Thu 06:37:46 AM 35.3660 29.3660 314° West 425 489 34,000  Level FlightAware ADS-B
Thu 06:38:21 AM 35.4130 29.3050 313° West 425 489 34,000  Level FlightAware ADS-B
Thu 06:38:57 AM 35.4610 29.2420 313° West 425 489 34,000  Level FlightAware ADS-B
Thu 06:39:39 AM 35.5070 29.1830 314° West 425 489 34,000  Level FlightAware ADS-B
Thu 06:40:15 AM 35.5610 29.1120 313° West 425 489 34,000  Level FlightAware ADS-B
Thu 06:40:51 AM 35.6020 29.0580 313° West 425 489 34,000  Level FlightAware ADS-B
Thu 06:41:23 AM 35.6580 28.9870 314° West 422 486 34,000 88 Level FlightAware ADS-B
Thu 06:41:59 AM 35.7070 28.9220 313° West 418 481 34,100  Climbing FlightAware ADS-B
Thu 06:42:35 AM 35.7540 28.8610 314° West 416 479 34,000 -91 Descending FlightAware ADS-B
Thu 06:43:05 AM 35.7950 28.8070 313° West 415 478 34,000  Level FlightAware ADS-B
Thu 06:43:43 AM 35.8450 28.7410 313° West 414 476 34,000  Level FlightAware ADS-B
Thu 06:44:20 AM 35.8930 28.6780 313° West 413 475 34,000  Level FlightAware ADS-B
Thu 06:44:55 AM 35.9380 28.6180 313° West 413 475 34,000  Level FlightAware ADS-B
Thu 06:45:31 AM 35.9840 28.5580 313° West 413 475 34,000  Level FlightAware ADS-B
Thu 06:46:03 AM 36.0280 28.4990 313° West 413 475 34,000  Level FlightAware ADS-B
Thu 06:46:35 AM 36.0690 28.4440 313° West 414 476 34,000  Level FlightAware ADS-B
Thu 06:47:15 AM 36.1210 28.3750 313° West 415 478 34,000  Level FlightAware ADS-B
Thu 06:47:47 AM 36.1640 28.3180 313° West 416 479 34,000  Level FlightAware ADS-B
Thu 06:48:25 AM 36.2120 28.2540 313° West 417 480 34,000  Level FlightAware ADS-B
Thu 06:48:57 AM 36.2540 28.1980 313° West 417 480 34,000  Level FlightAware ADS-B
Thu 06:49:34 AM 36.3000 28.1370 313° West 416 479 34,000  Level FlightAware ADS-B
Thu 06:50:17 AM 36.3590 28.0600 314° West 418 481 34,000  Level FlightAware ADS-B
Thu 06:50:59 AM 36.4200 27.9900 317° Northwest 418 481 34,000  Level FlightAware ADS-B
Thu 06:51:31 AM 36.4620 27.9420 317° Northwest 419 482 34,000  Level FlightAware ADS-B
Thu 06:52:07 AM 36.5160 27.8790 317° Northwest 421 484 34,000  Level FlightAware ADS-B
Thu 06:52:43 AM 36.5660 27.8210 317° Northwest 423 487 34,000  Level FlightAware ADS-B
Thu 06:53:17 AM 36.6170 27.7620 317° Northwest 423 487 34,000  Level FlightAware ADS-B
Thu 06:53:53 AM 36.6670 27.7030 317° Northwest 423 487 34,000  Level FlightAware ADS-B
Thu 06:54:30 AM 36.7190 27.6420 317° Northwest 423 487 34,000  Level FlightAware ADS-B
Thu 06:55:06 AM 36.7720 27.5810 317° Northwest 423 487 34,000  Level FlightAware ADS-B
Thu 06:55:38 AM 36.8180 27.5270 317° Northwest 425 489 34,000  Level FlightAware ADS-B
Thu 06:56:13 AM 36.8680 27.4680 317° Northwest 429 494 34,000  Level FlightAware ADS-B
Thu 06:56:49 AM 36.9210 27.4060 317° Northwest 430 495 34,000 83 Level FlightAware ADS-B
Thu 06:57:25 AM 36.9730 27.3450 317° Northwest 429 494 34,100 90 Climbing FlightAware ADS-B
Thu 06:57:56 AM 37.0170 27.2930 317° Northwest 428 493 34,100 -87 Level FlightAware ADS-B
Thu 06:58:34 AM 37.0720 27.2280 317° Northwest 427 491 34,000 -85 Descending FlightAware ADS-B
Thu 06:59:07 AM 37.1180 27.1730 316° Northwest 428 493 34,000  Level FlightAware ADS-B
Thu 06:59:43 AM 37.1710 27.1100 317° Northwest 429 494 34,000  Level FlightAware ADS-B
Thu 07:00:20 AM 37.2240 27.0470 317° Northwest 429 494 34,000  Level FlightAware ADS-B
Thu 07:00:56 AM 37.2760 26.9860 317° Northwest 427 491 34,000  Level FlightAware ADS-B
Thu 07:01:28 AM 37.3230 26.9300 317° Northwest 427 491 34,000  Level FlightAware ADS-B
Thu 07:02:02 AM 37.3700 26.8730 316° Northwest 425 489 34,000  Level FlightAware ADS-B
Thu 07:02:36 AM 37.4190 26.8170 318° Northwest 425 489 34,000  Level FlightAware ADS-B
Thu 07:03:12 AM 37.4730 26.7590 320° Northwest 423 487 34,000  Level FlightAware ADS-B
Thu 07:03:46 AM 37.5220 26.7060 319° Northwest 422 486 34,000  Level FlightAware ADS-B
Thu 07:04:24 AM 37.5780 26.6450 319° Northwest 423 487 34,000  Level FlightAware ADS-B
Thu 07:05:00 AM 37.6340 26.5850 320° Northwest 423 487 34,000  Level FlightAware ADS-B
Thu 07:05:32 AM 37.6800 26.5340 319° Northwest 425 489 34,000  Level FlightAware ADS-B
Thu 07:06:04 AM 37.7280 26.4820 319° Northwest 424 488 34,000  Level FlightAware ADS-B
Thu 07:06:44 AM 37.7870 26.4180 319° Northwest 425 489 34,000  Level FlightAware ADS-B
Thu 07:07:20 AM 37.8410 26.3590 319° Northwest 426 490 34,000  Level FlightAware ADS-B
Thu 07:07:54 AM 37.8920 26.3030 319° Northwest 428 493 34,000  Level FlightAware ADS-B
Thu 07:08:28 AM 37.9430 26.2470 319° Northwest 428 493 34,000  Level FlightAware ADS-B
Thu 07:09:04 AM 37.9970 26.1870 319° Northwest 428 493 34,000  Level FlightAware ADS-B
Thu 07:09:40 AM 38.0500 26.1300 320° Northwest 428 493 34,000  Level FlightAware ADS-B
Thu 07:10:11 AM 38.0950 26.0800 319° Northwest 428 493 34,000  Level FlightAware ADS-B
Thu 07:10:48 AM 38.1520 26.0170 319° Northwest 427 491 34,000  Level FlightAware ADS-B
Thu 07:11:24 AM 38.2050 25.9570 318° Northwest 427 491 34,000  Level FlightAware ADS-B
Thu 07:11:58 AM 38.2570 25.9090 324° Northwest 433 498 34,000  Level FlightAware ADS-B
Thu 07:12:33 AM 38.3080 25.8710 330° Northwest 433 498 34,000  Level FlightAware ADS-B
Thu 07:13:08 AM 38.3820 25.8170 330° Northwest 433 498 34,000  Level FlightAware ADS-B
Thu 07:13:44 AM 38.4450 25.7700 330° Northwest 432 497 34,000  Level FlightAware ADS-B
Thu 07:14:25 AM 38.5140 25.7190 330° Northwest 428 493 34,000  Level FlightAware ADS-B
Thu 07:15:00 AM 38.5740 25.6740 330° Northwest 427 491 34,000  Level FlightAware ADS-B
Thu 07:15:36 AM 38.6360 25.6280 330° Northwest 424 488 34,000  Level FlightAware ADS-B
Thu 07:16:08 AM 38.6880 25.5890 330° Northwest 423 487 34,000  Level FlightAware ADS-B
Thu 07:16:58 AM 38.7690 25.5280 330° Northwest 422 486 34,000  Level FlightAware ADS-B
Thu 07:17:34 AM 38.8340 25.4790 330° Northwest 422 486 34,000  Level FlightAware ADS-B
Thu 07:18:15 AM 38.8900 25.4360 329° Northwest 422 486 34,000  Level FlightAware ADS-B
Thu 07:19:26 AM 39.0250 25.3350 330° Northwest 425 489 34,000  Level FlightAware ADS-B
Thu 07:19:55 AM 39.0700 25.3010 330° Northwest 334 384 34,000  Level FlightAware ADS-B
Thu 07:20:35 AM 39.1370 25.2490 329° Northwest 418 481 34,000  Level FlightAware ADS-B
Thu 07:21:08 AM 39.1950 25.2050 330° Northwest 423 487 34,000  Level FlightAware ADS-B
Thu 07:21:46 AM 39.2610 25.1550 330° Northwest 422 486 34,000  Level FlightAware ADS-B
Thu 07:22:33 AM 39.3300 25.1020 329° Northwest 421 484 34,000  Level FlightAware ADS-B
Thu 07:23:20 AM 39.4020 25.0450 329° Northwest 412 474 34,000  Level FlightAware ADS-B
Thu 07:23:56 AM 39.4510 25.0050 328° Northwest 412 474 34,000  Level FlightAware ADS-B
Thu 07:24:25 AM 39.5230 24.9530 331° Northwest 412 474 34,000  Level FlightAware ADS-B
Thu 07:25:02 AM 39.5870 24.9040 329° Northwest 419 482 34,000  Level FlightAware ADS-B
Thu 07:25:36 AM 39.6370 24.8660 330° Northwest 419 482 34,000  Level FlightAware ADS-B
Thu 07:26:13 AM 39.6890 24.8250 329° Northwest 419 482 34,000  Level FlightAware ADS-B
Thu 07:26:49 AM 39.7400 24.7850 329° Northwest 419 482 34,000  Level FlightAware ADS-B
Thu 07:27:25 AM 39.7910 24.7450 329° Northwest 419 482 34,000  Level FlightAware ADS-B
Thu 07:28:09 AM 39.8930 24.6670 330° Northwest 411 473 34,000  Level FlightAware ADS-B
Thu 07:28:44 AM 39.9480 24.6240 329° Northwest 411 473 34,000  Level FlightAware ADS-B
Thu 07:29:22 AM 40.0090 24.5760 329° Northwest 408 470 34,000  Level FlightAware ADS-B
Thu 07:29:56 AM 40.0630 24.5330 329° Northwest 406 467 34,000  Level FlightAware ADS-B
Thu 07:30:29 AM 40.1200 24.4890 329° Northwest 403 464 34,000  Level FlightAware ADS-B
Thu 07:31:04 AM 40.1760 24.4450 329° Northwest 400 460 34,000  Level FlightAware ADS-B
Thu 07:31:39 AM 40.2320 24.4010 329° Northwest 399 459 34,000  Level FlightAware ADS-B
Thu 07:32:14 AM 40.2860 24.3580 329° Northwest 401 461 34,000  Level FlightAware ADS-B
Thu 07:32:54 AM 40.3490 24.3080 329° Northwest 399 459 34,000  Level FlightAware ADS-B
Thu 07:33:25 AM 40.4000 24.2670 329° Northwest 400 460 34,000  Level FlightAware ADS-B
Thu 07:34:01 AM 40.4520 24.2260 329° Northwest 399 459 34,000  Level FlightAware ADS-B
Thu 07:34:36 AM 40.5120 24.1780 329° Northwest 399 459 34,000  Level FlightAware ADS-B
Thu 07:35:17 AM 40.5730 24.1290 329° Northwest 399 459 34,000  Level FlightAware ADS-B
Thu 07:35:52 AM 40.6250 24.0880 329° Northwest 398 458 34,000  Level FlightAware ADS-B
Thu 07:36:26 AM 40.6840 24.0400 328° Northwest 397 457 34,000  Level FlightAware ADS-B
Thu 07:37:06 AM 40.7460 23.9900 329° Northwest 397 457 34,000  Level FlightAware ADS-B
Thu 07:37:38 AM 40.7990 23.9480 329° Northwest 397 457 34,000  Level FlightAware ADS-B
Thu 07:38:14 AM 40.8550 23.9030 329° Northwest 398 458 34,000  Level FlightAware ADS-B
Thu 07:38:49 AM 40.9100 23.8590 329° Northwest 399 459 34,000  Level FlightAware ADS-B
Thu 07:39:21 AM 40.9600 23.8180 328° Northwest 400 460 34,000  Level FlightAware ADS-B
Thu 07:39:58 AM 41.0190 23.7700 328° Northwest 399 459 34,000  Level FlightAware ADS-B
Thu 07:40:32 AM 41.0720 23.7270 329° Northwest 399 459 34,000  Level FlightAware ADS-B
Thu 07:41:10 AM 41.1300 23.6800 329° Northwest 399 459 34,000  Level FlightAware ADS-B
Thu 07:41:42 AM 41.1850 23.6390 331° Northwest 401 461 34,000  Level FlightAware ADS-B
Thu 07:42:18 AM 41.2440 23.6010 334° Northwest 402 463 34,000  Level FlightAware ADS-B
Thu 07:42:53 AM 41.3000 23.5640 334° Northwest 398 458 34,000  Level FlightAware ADS-B
Thu 07:43:30 AM 41.3620 23.5230 334° Northwest 399 459 34,000  Level FlightAware ADS-B
Thu 07:44:03 AM 41.4140 23.4870 333° Northwest 399 459 34,000  Level FlightAware ADS-B
Thu 07:44:40 AM 41.4790 23.4440 334° Northwest 399 459 34,000  Level FlightAware ADS-B
Thu 07:45:16 AM 41.5380 23.4030 333° Northwest 398 458 34,000  Level FlightAware ADS-B
Thu 07:45:48 AM 41.5890 23.3680 333° Northwest 398 458 34,000  Level FlightAware ADS-B
Thu 07:46:20 AM 41.6420 23.3330 334° Northwest 399 459 34,000  Level FlightAware ADS-B
Thu 07:47:00 AM 41.7080 23.2870 333° Northwest 401 461 34,000  Level FlightAware ADS-B
Thu 07:47:36 AM 41.7670 23.2470 333° Northwest 400 460 34,000  Level FlightAware ADS-B
Thu 07:48:08 AM 41.8180 23.2120 333° Northwest 401 461 34,000  Level FlightAware ADS-B
Thu 07:48:46 AM 41.8830 23.1670 333° Northwest 402 463 34,000  Level FlightAware ADS-B
Thu 07:49:18 AM 41.9360 23.1310 333° Northwest 402 463 34,000  Level FlightAware ADS-B
Thu 07:49:52 AM 41.9910 23.0930 333° Northwest 401 461 34,000  Level FlightAware ADS-B
Thu 07:50:30 AM 42.0540 23.0490 333° Northwest 401 461 34,000  Level FlightAware ADS-B
Thu 07:51:05 AM 42.1130 23.0090 333° Northwest 403 464 34,000  Level FlightAware ADS-B
Thu 07:51:37 AM 42.1650 22.9730 333° Northwest 404 465 34,000  Level FlightAware ADS-B
Thu 07:52:13 AM 42.2230 22.9320 332° Northwest 403 464 34,000  Level FlightAware ADS-B
Thu 07:52:47 AM 42.2820 22.8910 333° Northwest 402 463 34,000  Level FlightAware ADS-B
Thu 07:53:24 AM 42.3380 22.8520 333° Northwest 401 461 34,000  Level FlightAware ADS-B
Thu 07:53:51 AM 42.3880 22.8170 333° Northwest 400 460 34,000  Level FlightAware ADS-B
Thu 07:54:29 AM 42.4460 22.7760 332° Northwest 402 463 34,000  Level FlightAware ADS-B
Thu 07:55:05 AM 42.5090 22.7320 333° Northwest 403 464 34,000  Level FlightAware ADS-B
Thu 07:55:37 AM 42.5630 22.6950 333° Northwest 404 465 34,000  Level FlightAware ADS-B
Thu 07:55:51 AM 42.5850 22.6770 329° Northwest 399 459 34,000 115 Level FlightAware ADS-B
Thu 07:56:29 AM 42.6310 22.6100 313° West 387 445 34,100  Climbing FlightAware ADS-B
Thu 07:57:01 AM 42.6680 22.5500 310° West 386 444 34,000 -91 Descending FlightAware ADS-B
Thu 07:57:35 AM 42.7080 22.4880 311° West 385 443 34,000  Level FlightAware ADS-B
Thu 07:58:13 AM 42.7520 22.4180 311° West 385 443 34,000  Level FlightAware ADS-B
Thu 07:58:49 AM 42.7930 22.3520 310° West 385 443 34,000  Level FlightAware ADS-B
Thu 07:59:21 AM 42.8300 22.2930 311° West 386 444 34,000  Level FlightAware ADS-B
Thu 07:59:57 AM 42.8710 22.2270 310° West 386 444 34,000  Level FlightAware ADS-B
Thu 08:00:33 AM 42.9130 22.1590 310° West 386 444 34,000  Level FlightAware ADS-B
Thu 08:01:06 AM 42.9500 22.0980 310° West 386 444 34,000  Level FlightAware ADS-B
Thu 08:01:43 AM 42.9930 22.0290 310° West 386 444 34,000  Level FlightAware ADS-B
Thu 08:02:15 AM 43.0300 21.9690 310° West 386 444 34,000  Level FlightAware ADS-B
Thu 08:02:49 AM 43.0690 21.9050 310° West 386 444 34,000 83 Level FlightAware ADS-B
Thu 08:03:27 AM 43.1120 21.8340 310° West 387 445 34,100 507 Climbing FlightAware ADS-B
Thu 08:04:00 AM 43.1500 21.7720 310° West 389 448 34,600 882 Climbing FlightAware ADS-B
Thu 08:04:35 AM 43.1910 21.7060 310° West 387 445 35,100 957 Climbing FlightAware ADS-B
Thu 08:05:09 AM 43.2290 21.6420 309° West 386 444 35,700 771 Climbing FlightAware ADS-B
Thu 08:05:45 AM 43.2700 21.5750 310° West 377 434 36,000 250 Climbing FlightAware ADS-B
Thu 08:06:21 AM 43.3100 21.5090 310° West 377 434 36,000  Level FlightAware ADS-B
Thu 08:06:58 AM 43.3500 21.4430 310° West 380 437 36,000  Level FlightAware ADS-B
Thu 08:07:30 AM 43.3850 21.3860 310° West 379 436 36,000  Level FlightAware ADS-B
Thu 08:08:07 AM 43.4290 21.3120 309° West 377 434 36,000  Level FlightAware ADS-B
Thu 08:08:40 AM 43.4640 21.2530 309° West 379 436 36,000  Level FlightAware ADS-B
Thu 08:09:15 AM 43.5050 21.1850 310° West 382 440 36,000  Level FlightAware ADS-B
Thu 08:09:52 AM 43.5450 21.1170 309° West 385 443 36,000 86 Level FlightAware ADS-B
Thu 08:10:25 AM 43.5830 21.0540 310° West 384 442 36,100 90 Climbing FlightAware ADS-B
Thu 08:10:59 AM 43.6220 20.9890 310° West 383 441 36,100 -91 Level FlightAware ADS-B
Thu 08:11:31 AM 43.6430 20.9540 310° West 383 441 36,000 -81 Descending FlightAware ADS-B
Thu 08:12:13 AM 43.7030 20.8510 309° West 380 437 36,000  Level FlightAware ADS-B
Thu 08:12:45 AM 43.7390 20.7910 310° West 381 438 36,000  Level FlightAware ADS-B
Thu 08:13:21 AM 43.7790 20.7230 309° West 383 441 36,000  Level FlightAware ADS-B
Thu 08:13:55 AM 43.8180 20.6570 309° West 386 444 36,000  Level FlightAware ADS-B
Thu 08:14:32 AM 43.8580 20.5880 309° West 388 447 36,000  Level FlightAware ADS-B
Thu 08:15:07 AM 43.8980 20.5200 309° West 391 450 36,000  Level FlightAware ADS-B
Thu 08:15:42 AM 43.9360 20.4540 309° West 391 450 36,000  Level FlightAware ADS-B
Thu 08:16:15 AM 43.9770 20.3850 310° West 390 449 36,000  Level FlightAware ADS-B
Thu 08:16:52 AM 44.0180 20.3150 309° West 388 447 36,000  Level FlightAware ADS-B
Thu 08:17:22 AM 44.0520 20.2550 308° West 388 447 36,000  Level FlightAware ADS-B
Thu 08:18:04 AM 44.0960 20.1790 309° West 386 444 36,000  Level FlightAware ADS-B
Thu 08:18:36 AM 44.1350 20.1110 309° West 386 444 36,000  Level FlightAware ADS-B
Thu 08:19:12 AM 44.1740 20.0440 309° West 387 445 36,000  Level FlightAware ADS-B
Thu 08:19:47 AM 44.2120 19.9780 309° West 387 445 36,000  Level FlightAware ADS-B
Thu 08:20:20 AM 44.2510 19.9090 308° West 389 448 36,000  Level FlightAware ADS-B
Thu 08:21:03 AM 44.2940 19.8330 308° West 390 449 36,000  Level FlightAware ADS-B
Thu 08:21:38 AM 44.3370 19.7590 309° West 391 450 36,000  Level FlightAware ADS-B
Thu 08:22:12 AM 44.3750 19.6920 308° West 390 449 36,000  Level FlightAware ADS-B
Thu 08:22:47 AM 44.4150 19.6220 309° West 390 449 36,000  Level FlightAware ADS-B
Thu 08:23:23 AM 44.4550 19.5500 308° West 389 448 36,000  Level FlightAware ADS-B
Thu 08:23:57 AM 44.4920 19.4850 309° West 387 445 36,000  Level FlightAware ADS-B
Thu 08:24:34 AM 44.5340 19.4110 309° West 386 444 36,000  Level FlightAware ADS-B
Thu 08:25:10 AM 44.5720 19.3430 308° West 386 444 36,000  Level FlightAware ADS-B
Thu 08:25:40 AM 44.6060 19.2820 308° West 387 445 36,000  Level FlightAware ADS-B
Thu 08:26:20 AM 44.6500 19.2040 308° West 388 447 36,000  Level FlightAware ADS-B
Thu 08:26:56 AM 44.6900 19.1320 308° West 390 449 36,000  Level FlightAware ADS-B
Thu 08:27:28 AM 44.7240 19.0700 308° West 391 450 36,000  Level FlightAware ADS-B
Thu 08:28:14 AM 44.7770 18.9760 308° West 392 451 36,000  Level FlightAware ADS-B
Thu 08:28:49 AM 44.8140 18.9080 308° West 391 450 36,000  Level FlightAware ADS-B
Thu 08:29:29 AM 44.8600 18.8250 308° West 391 450 36,000  Level FlightAware ADS-B
Thu 08:29:59 AM 44.8930 18.7650 308° West 385 443 36,000  Level FlightAware ADS-B
Thu 08:30:37 AM 44.9320 18.6950 308° West 390 449 36,000  Level FlightAware ADS-B
Thu 08:31:09 AM 44.9700 18.6240 307° West 385 443 36,000  Level FlightAware ADS-B
Thu 08:31:49 AM 45.0140 18.5440 308° West 384 442 36,000  Level FlightAware ADS-B
Thu 08:32:19 AM 45.0460 18.4850 308° West 383 441 36,000  Level FlightAware ADS-B
Thu 08:32:54 AM 45.0840 18.4120 306° West 381 438 36,000  Level FlightAware ADS-B
Thu 08:33:35 AM 45.1150 18.3280 298° West 377 434 36,000  Level FlightAware ADS-B
Thu 08:34:06 AM 45.1400 18.2600 298° West 376 433 36,000  Level FlightAware ADS-B
Thu 08:34:43 AM 45.1730 18.1720 298° West 375 432 36,000  Level FlightAware ADS-B
Thu 08:35:19 AM 45.2010 18.0970 298° West 375 432 36,000  Level FlightAware ADS-B
Thu 08:35:49 AM 45.2250 18.0320 298° West 371 427 36,000  Level FlightAware ADS-B
Thu 08:36:29 AM 45.2570 17.9450 298° West 371 427 36,000  Level FlightAware ADS-B
Thu 08:36:59 AM 45.2790 17.8860 298° West 372 428 36,000  Level FlightAware ADS-B
Thu 08:37:34 AM 45.3090 17.8050 298° West 371 427 36,000  Level FlightAware ADS-B
Thu 08:38:12 AM 45.3400 17.7210 298° West 374 430 36,000  Level FlightAware ADS-B
Thu 08:38:49 AM 45.3690 17.6420 298° West 374 430 36,000  Level FlightAware ADS-B
Thu 08:39:24 AM 45.3970 17.5640 297° West 372 428 36,000  Level FlightAware ADS-B
Thu 08:39:58 AM 45.4220 17.4960 298° West 369 425 36,000  Level FlightAware ADS-B
Thu 08:40:28 AM 45.4480 17.4240 297° West 370 426 36,000  Level FlightAware ADS-B
Thu 08:41:24 AM 45.4920 17.3010 297° West 373 429 36,000  Level FlightAware ADS-B
Thu 08:41:54 AM 45.5160 17.2360 298° West 375 432 36,000  Level FlightAware ADS-B
Thu 08:42:29 AM 45.5440 17.1580 297° West 377 434 36,000  Level FlightAware ADS-B
Thu 08:43:06 AM 45.5670 17.0910 296° West 378 435 36,000  Level FlightAware ADS-B
Thu 08:43:44 AM 45.6030 16.9920 297° West 386 444 36,000  Level FlightAware ADS-B
Thu 08:44:19 AM 45.6320 16.9090 297° West 390 449 36,000  Level FlightAware ADS-B
Thu 08:44:49 AM 45.6560 16.8430 298° West 391 450 36,000 87 Level FlightAware ADS-B
Thu 08:45:28 AM 45.6870 16.7530 296° West 391 450 36,100  Climbing FlightAware ADS-B
Thu 08:45:59 AM 45.7120 16.6820 297° West 393 452 36,000 -91 Descending FlightAware ADS-B
Thu 08:46:34 AM 45.7430 16.5960 297° West 394 453 36,000  Level FlightAware ADS-B
Thu 08:47:10 AM 45.7700 16.5170 296° West 394 453 36,000  Level FlightAware ADS-B
Thu 08:47:48 AM 45.8040 16.4210 297° West 398 458 36,000  Level FlightAware ADS-B
Thu 08:48:18 AM 45.8270 16.3540 296° West 400 460 36,000  Level FlightAware ADS-B
Thu 08:48:54 AM 45.8570 16.2680 297° West 402 463 36,000  Level FlightAware ADS-B
Thu 08:49:30 AM 45.8860 16.1830 296° West 406 467 36,000  Level FlightAware ADS-B
Thu 08:50:06 AM 45.9150 16.1010 297° West 410 472 36,000  Level FlightAware ADS-B
Thu 08:50:41 AM 45.9420 16.0210 296° West 409 471 36,000 86 Level FlightAware ADS-B
Thu 08:51:16 AM 45.9770 15.9350 300° West 409 471 36,100  Climbing FlightAware ADS-B
Thu 08:51:51 AM 46.0150 15.8480 302° West 410 472 36,000 -86 Descending FlightAware ADS-B
Thu 08:52:26 AM 46.0490 15.7670 301° West 408 470 36,000  Level FlightAware ADS-B
Thu 08:52:59 AM 46.0830 15.6850 301° West 414 476 36,000  Level FlightAware ADS-B
Thu 08:53:44 AM 46.1240 15.5870 301° West 410 472 36,000  Level FlightAware ADS-B
Thu 08:54:16 AM 46.1610 15.5010 302° West 414 476 36,000  Level FlightAware ADS-B
Thu 08:54:56 AM 46.1970 15.4160 301° West 416 479 36,000  Level FlightAware ADS-B
Thu 08:55:41 AM 46.2440 15.3030 301° West 415 478 36,000 75 Level FlightAware ADS-B
Thu 08:56:16 AM 46.2780 15.2220 301° West 413 475 36,100  Climbing FlightAware ADS-B
Thu 08:56:49 AM 46.3090 15.1470 301° West 412 474 36,000 -78 Descending FlightAware ADS-B
Thu 08:57:33 AM 46.3530 15.0410 301° West 411 473 36,000  Level FlightAware ADS-B
Thu 08:58:12 AM 46.3900 14.9500 301° West 410 472 36,000  Level FlightAware ADS-B
Thu 08:59:03 AM 46.4360 14.8380 301° West 409 471 36,000  Level FlightAware ADS-B
Thu 08:59:40 AM 46.4770 14.7390 301° West 410 472 36,000  Level FlightAware ADS-B
Thu 09:00:19 AM 46.5130 14.6510 301° West 409 471 36,000  Level FlightAware ADS-B
Thu 09:00:52 AM 46.5400 14.5830 300° West 409 471 36,000  Level FlightAware ADS-B
Thu 09:01:32 AM 46.5850 14.4730 301° West 408 470 36,000  Level FlightAware ADS-B
Thu 09:02:05 AM 46.6160 14.3970 301° West 409 471 36,000  Level FlightAware ADS-B
Thu 09:02:42 AM 46.6520 14.3060 300° West 412 474 36,000  Level FlightAware ADS-B
Thu 09:03:20 AM 46.6880 14.2160 300° West 414 476 36,000  Level FlightAware ADS-B
Thu 09:03:52 AM 46.7190 14.1390 300° West 416 479 36,000  Level FlightAware ADS-B
Thu 09:04:28 AM 46.7530 14.0540 300° West 421 484 36,000  Level FlightAware ADS-B
Thu 09:05:00 AM 46.7860 13.9710 300° West 423 487 36,000  Level FlightAware ADS-B
Thu 09:05:36 AM 46.8220 13.8810 300° West 426 490 36,000 85 Level FlightAware ADS-B
Thu 09:06:11 AM 46.8530 13.8020 300° West 426 490 36,100 86 Climbing FlightAware ADS-B
Thu 09:06:46 AM 46.8900 13.7090 300° West 424 488 36,100 -83 Level FlightAware ADS-B
Thu 09:07:23 AM 46.9250 13.6200 300° West 423 487 36,000 -81 Descending FlightAware ADS-B
Thu 09:08:00 AM 46.9620 13.5260 300° West 422 486 36,000  Level FlightAware ADS-B
Thu 09:08:32 AM 46.9920 13.4480 299° West 422 486 36,000  Level FlightAware ADS-B
Thu 09:09:10 AM 47.0290 13.3530 300° West 423 487 36,000  Level FlightAware ADS-B
Thu 09:09:41 AM 47.0590 13.2760 300° West 425 489 36,000  Level FlightAware ADS-B
Thu 09:10:19 AM 47.0970 13.1780 300° West 428 493 36,000  Level FlightAware ADS-B
Thu 09:10:51 AM 47.1270 13.0990 299° West 430 495 36,000  Level FlightAware ADS-B
Thu 09:11:28 AM 47.1580 13.0180 299° West 430 495 36,000  Level FlightAware ADS-B
Thu 09:11:58 AM 47.1910 12.9330 300° West 430 495 36,000  Level FlightAware ADS-B
Thu 09:12:34 AM 47.2280 12.8350 299° West 429 494 36,000  Level FlightAware ADS-B
Thu 09:13:13 AM 47.2650 12.7390 300° West 428 493 36,000  Level FlightAware ADS-B
Thu 09:13:46 AM 47.2950 12.6590 299° West 427 491 36,000  Level FlightAware ADS-B
Thu 09:14:21 AM 47.3290 12.5680 299° West 424 488 36,000  Level FlightAware ADS-B
Thu 09:14:57 AM 47.3650 12.4730 299° West 422 486 36,000 -423 Level FlightAware ADS-B
Thu 09:15:32 AM 47.3960 12.3890 299° West 418 481 35,500 -818 Descending FlightAware ADS-B
Thu 09:16:03 AM 47.4240 12.3140 299° West 426 490 35,100 -423 Descending FlightAware ADS-B
Thu 09:16:43 AM 47.4640 12.2080 299° West 432 497 35,000 -80 Descending FlightAware ADS-B
Thu 09:17:18 AM 47.4990 12.1150 299° West 427 491 35,000  Level FlightAware ADS-B
Thu 09:17:53 AM 47.5280 12.0230 295° West 433 498 35,000  Level FlightAware ADS-B
Thu 09:18:28 AM 47.5500 11.9230 288° West 436 502 35,000  Level FlightAware ADS-B
Thu 09:19:01 AM 47.5630 11.8290 282° West 437 503 35,000  Level FlightAware ADS-B
Thu 09:19:37 AM 47.5780 11.7250 282° West 437 503 35,000  Level FlightAware ADS-B
Thu 09:20:09 AM 47.5910 11.6320 282° West 436 502 35,000  Level FlightAware ADS-B
Thu 09:20:47 AM 47.6060 11.5190 281° West 437 503 35,000 -160 Level FlightAware ADS-B
Thu 09:21:24 AM 47.6210 11.4110 282° West 438 504 34,800 -658 Descending FlightAware ADS-B
Thu 09:22:00 AM 47.6350 11.3050 281° West 438 504 34,200 -1,029 Descending FlightAware ADS-B
Thu 09:22:34 AM 47.6470 11.2020 280° West 439 505 33,600 -985 Descending FlightAware ADS-B
Thu 09:23:07 AM 47.6580 11.1080 280° West 438 504 33,100 -943 Descending FlightAware ADS-B
Thu 09:23:44 AM 47.6710 11.0010 280° West 441 507 32,500 -1,029 Descending FlightAware ADS-B
Thu 09:24:17 AM 47.6820 10.9000 279° West 436 502 31,900 -957 Descending FlightAware ADS-B
Thu 09:24:53 AM 47.6940 10.7990 280° West 431 496 31,400 -930 Descending FlightAware ADS-B
Thu 09:25:28 AM 47.7070 10.6920 280° West 426 490 30,800 -1,043 Descending FlightAware ADS-B
Thu 09:26:02 AM 47.7180 10.5930 279° West 421 484 30,200 -971 Descending FlightAware ADS-B
Thu 09:26:36 AM 47.7280 10.5040 280° West 416 479 29,700 -943 Descending FlightAware ADS-B
Thu 09:27:12 AM 47.7400 10.4050 280° West 417 480 29,100 -1,014 Descending FlightAware ADS-B
Thu 09:27:47 AM 47.7450 10.3030 274° West 421 484 28,500 -870 Descending FlightAware ADS-B
Thu 09:28:21 AM 47.7430 10.2050 268° West 418 481 28,100 -435 Descending FlightAware ADS-B
Thu 09:28:56 AM 47.7400 10.1110 267° West 418 481 28,000 -86 Descending FlightAware ADS-B
Thu 09:29:31 AM 47.7380 10.0030 268° West 417 480 28,000  Level FlightAware ADS-B
Thu 09:30:06 AM 47.7350 9.9040 267° West 415 478 28,000  Level FlightAware ADS-B
Thu 09:30:46 AM 47.7320 9.7910 268° West 415 478 28,000  Level FlightAware ADS-B
Thu 09:31:17 AM 47.7300 9.7100 268° West 415 478 28,000  Level FlightAware ADS-B
Thu 09:31:51 AM 47.7280 9.6090 268° West 416 479 28,000  Level FlightAware ADS-B
Thu 09:32:30 AM 47.7240 9.4930 267° West 415 478 28,000  Level FlightAware ADS-B
Thu 09:33:04 AM 47.7210 9.3940 267° West 415 478 28,000  Level FlightAware ADS-B
Thu 09:33:36 AM 47.7190 9.3010 268° West 415 478 28,000 -86 Level FlightAware ADS-B
Thu 09:34:14 AM 47.7160 9.1980 268° West 415 478 27,900 -1,622 Descending FlightAware ADS-B
Thu 09:34:50 AM 47.7130 9.0910 268° West 427 491 26,000 -2,917 Descending FlightAware ADS-B
Thu 09:35:26 AM 47.7090 8.9920 267° West 423 487 24,400 -2,776 Descending FlightAware ADS-B
Thu 09:35:57 AM 47.7060 8.8980 267° West 418 481 22,900 -2,909 Descending FlightAware ADS-B
Thu 09:36:32 AM 47.7030 8.8020 267° West 418 481 21,200 -2,696 Descending FlightAware ADS-B
Thu 09:37:06 AM 47.6990 8.7050 267° West 410 472 19,800 -2,364 Descending FlightAware ADS-B
Thu 09:37:38 AM 47.6970 8.6180 268° West 403 464 18,600 -2,237 Descending FlightAware ADS-B
Thu 09:38:05 AM 47.7080 8.5470 283° West 388 447 17,600 -1,800 Descending FlightAware ADS-B
Thu 09:38:28 AM 47.7280 8.4900 298° West 391 450 17,100 -1,698 Descending FlightAware ADS-B
Thu 09:38:58 AM 47.7390 8.4090 281° West 387 445 16,100 -1,800 Descending FlightAware ADS-B
Thu 09:39:38 AM 47.7500 8.3130 280° West 376 433 15,000 -1,886 Descending FlightAware ADS-B
Thu 09:40:08 AM 47.7600 8.2300 280° West 368 423 13,900 -1,754 Descending FlightAware ADS-B
Thu 09:40:43 AM 47.7700 8.1440 280° West 361 415 13,100 -800 Descending FlightAware ADS-B
Thu 09:41:23 AM 47.7820 8.0480 281° West 349 402 12,900 -1,183 Descending FlightAware ADS-B
Thu 09:41:54 AM 47.7890 7.9810 279° West 349 402 11,700 -2,229 Descending FlightAware ADS-B
Thu 09:42:33 AM 47.7950 7.8820 275° West 342 394 10,300 -1,478 Descending FlightAware ADS-B
Thu 09:43:03 AM 47.8010 7.8110 277° West 344 396 10,000 -436 Descending FlightAware ADS-B
Thu 09:43:28 AM 47.8070 7.7530 279° West 333 383 9,900 -522 Descending FlightAware ADS-B
Thu 09:43:49 AM 47.8090 7.7100 274° West 299 344 9,600 -800 Descending FlightAware ADS-B
Thu 09:44:13 AM 47.8020 7.6630 258° West 263 303 9,300 -3,184 Descending FlightAware ADS-B
Thu 09:44:38 AM 47.7870 7.6230 241° Southwest 272 313 7,000 -5,467 Descending FlightAware ADS-B
Thu 09:44:58 AM 47.7750 7.5920 240° Southwest 280 322 5,200 -4,047 Descending FlightAware ADS-B
Thu 09:45:21 AM 47.7590 7.5620 232° Southwest 264 304 4,100 -2,286 Descending FlightAware ADS-B
Thu 09:45:40 AM 47.7370 7.5400 214° Southwest 231 266 3,600 -1,800 Descending FlightAware ADS-B
Thu 09:46:01 AM 47.7190 7.5240 211° Southwest 220 253 2,900 -2,100 Descending FlightAware ADS-B
Thu 09:46:20 AM 47.7010 7.5100 208° Southwest 212 244 2,200 -1,800 Descending FlightAware ADS-B
Thu 09:46:41 AM 47.6830 7.4950 209° Southwest 205 236 1,700 -878 Descending FlightAware ADS-B
Thu 09:47:01 AM 47.6680 7.4830 208° Southwest 162 186 1,600 -200 Descending FlightAware ADS-B
Thu 09:47:11 AM 47.6610 7.4810 191° South 160 184 1,600 -600 Level FlightAware ADS-B
Thu 09:47:41 AM 47.6420 7.4930 157° South 145 167 1,200 -857 Descending FlightAware ADS-B
Thu 09:48:00 AM 47.6280 7.5020 157° South 141 162 900 -882 Descending FlightAware ADS-B
Thu 09:48:15 AM 47.6190 7.5090 152° Southeast 143 165 700 -800 Descending FlightAware ADS-B
Thu 09:48:42 AM 47.6060 7.5180 155° Southeast 110 127 -1,556 Descending FlightAware ADS-B

Login

Don't have an account? Register now (free) for customized features, flight alerts, and more!